createdAt,value
2023-03-21T00:00:42.230Z,23.87
2023-03-21T00:03:10.956Z,22.23
2023-03-21T00:05:42.097Z,24.93
2023-03-21T00:08:11.126Z,23.63
2023-03-21T00:10:42.201Z,23.73
2023-03-21T00:13:16.030Z,23.43
2023-03-21T00:16:05.235Z,19.47
2023-03-21T00:18:42.078Z,20.53
2023-03-21T00:21:40.667Z,24.87
2023-03-21T00:24:03.821Z,19.50
2023-03-21T00:26:32.520Z,19.23
2023-03-21T00:29:02.393Z,20.03
2023-03-21T00:31:31.333Z,15.30
2023-03-21T00:34:01.887Z,17.27
2023-03-21T00:36:32.834Z,17.27
2023-03-21T00:39:01.841Z,13.77
2023-03-21T00:41:45.571Z,20.67
2023-03-21T00:44:15.444Z,18.20
2023-03-21T00:46:54.409Z,22.67
2023-03-21T00:49:33.586Z,22.03
2023-03-21T00:52:15.257Z,20.27
2023-03-21T00:54:46.930Z,20.30
2023-03-21T00:57:15.446Z,22.33
2023-03-21T00:59:45.324Z,21.57
2023-03-21T01:02:22.546Z,23.13
2023-03-21T01:04:51.288Z,21.80
2023-03-21T01:07:19.820Z,18.23
2023-03-21T01:09:48.405Z,25.40
2023-03-21T01:12:16.833Z,24.90
2023-03-21T01:14:46.658Z,22.33
2023-03-21T01:17:15.313Z,25.70
2023-03-21T01:19:51.663Z,25.77
2023-03-21T01:22:21.079Z,30.43
2023-03-21T01:24:55.503Z,27.40
2023-03-21T01:27:29.100Z,31.20
2023-03-21T01:29:59.832Z,30.30
2023-03-21T01:32:28.606Z,37.10
2023-03-21T01:34:57.147Z,39.63
2023-03-21T01:37:26.593Z,30.33
2023-03-21T01:39:55.363Z,36.67
2023-03-21T01:42:24.147Z,39.20
2023-03-21T01:44:59.628Z,38.03
2023-03-21T01:47:38.732Z,39.03
2023-03-21T01:50:22.259Z,43.23
2023-03-21T01:53:00.691Z,40.73
2023-03-21T01:55:32.595Z,38.60
2023-03-21T01:58:07.791Z,33.83
2023-03-21T02:01:02.769Z,43.07
2023-03-21T02:03:51.298Z,44.13
2023-03-21T02:06:49.991Z,39.27
2023-03-21T02:09:47.726Z,34.57
2023-03-21T02:12:20.554Z,34.40
2023-03-21T02:14:50.827Z,38.57
2023-03-21T02:17:37.637Z,43.13
2023-03-21T02:20:39.577Z,40.57
2023-03-21T02:23:41.176Z,37.80
2023-03-21T02:26:42.330Z,42.20
2023-03-21T02:29:38.182Z,38.90
2023-03-21T02:32:28.389Z,41.47
2023-03-21T02:35:39.114Z,41.37
2023-03-21T02:38:19.506Z,34.73
2023-03-21T02:40:54.341Z,36.97
2023-03-21T02:43:31.145Z,37.47
2023-03-21T02:46:05.371Z,37.73
2023-03-21T02:48:49.849Z,34.37
2023-03-21T02:51:22.703Z,41.33
2023-03-21T02:54:23.680Z,41.90
2023-03-21T02:56:50.044Z,32.00
2023-03-21T02:59:21.353Z,38.97
2023-03-21T03:01:52.299Z,40.47
2023-03-21T03:04:23.320Z,37.40
2023-03-21T03:07:20.476Z,37.40
2023-03-21T03:10:02.267Z,35.80
2023-03-21T03:12:42.106Z,35.80
2023-03-21T03:15:22.026Z,38.37
2023-03-21T03:17:55.501Z,32.10
2023-03-21T03:20:31.536Z,42.07
2023-03-21T03:23:08.703Z,38.33
2023-03-21T03:25:46.125Z,41.13
2023-03-21T03:28:19.384Z,43.00
2023-03-21T03:31:07.029Z,40.63
2023-03-21T03:33:43.917Z,34.53
2023-03-21T03:36:33.415Z,36.43
2023-03-21T03:39:11.250Z,48.70
2023-03-21T03:42:07.865Z,46.90
2023-03-21T03:44:40.829Z,31.30
2023-03-21T03:47:22.813Z,36.23
2023-03-21T03:50:03.844Z,40.90
2023-03-21T03:52:42.018Z,34.80
2023-03-21T03:55:18.606Z,37.77
2023-03-21T03:57:51.362Z,36.63
2023-03-21T04:00:20.842Z,33.43
2023-03-21T04:02:51.647Z,40.70
2023-03-21T04:05:24.419Z,40.97
2023-03-21T04:07:53.233Z,37.40
2023-03-21T04:10:29.274Z,34.37
2023-03-21T04:12:59.366Z,43.13
2023-03-21T04:15:46.591Z,33.00
2023-03-21T04:18:17.903Z,36.40
2023-03-21T04:20:48.384Z,39.57
2023-03-21T04:23:18.915Z,33.50
2023-03-21T04:25:56.386Z,32.07
2023-03-21T04:28:36.100Z,33.90
2023-03-21T04:31:35.982Z,37.73
2023-03-21T04:34:12.945Z,41.63
2023-03-21T04:36:46.840Z,39.70
2023-03-21T04:39:16.475Z,33.50
2023-03-21T04:41:49.725Z,36.57
2023-03-21T04:44:20.912Z,33.90
2023-03-21T04:46:50.296Z,32.93
2023-03-21T04:49:19.015Z,37.53
2023-03-21T04:51:47.603Z,32.70
2023-03-21T04:54:21.028Z,31.23
2023-03-21T04:56:49.656Z,26.50
2023-03-21T04:59:21.348Z,31.47
2023-03-21T05:01:50.028Z,31.23
2023-03-21T05:04:19.040Z,27.47
2023-03-21T05:06:47.523Z,26.37
2023-03-21T05:09:18.153Z,26.93
2023-03-21T05:11:46.854Z,25.43
2023-03-21T05:14:20.038Z,21.07
2023-03-21T05:16:53.290Z,26.10
2023-03-21T05:19:24.111Z,21.80
2023-03-21T05:21:53.412Z,24.93
2023-03-21T05:24:24.737Z,21.57
2023-03-21T05:26:56.173Z,25.23
2023-03-21T05:29:30.175Z,29.17
2023-03-21T05:32:03.298Z,23.17
2023-03-21T05:34:33.008Z,29.50
2023-03-21T05:37:02.343Z,21.20
2023-03-21T05:39:51.326Z,24.77
2023-03-21T05:42:27.059Z,24.00
2023-03-21T05:44:57.501Z,19.97
2023-03-21T05:47:31.934Z,24.67
2023-03-21T05:50:01.997Z,25.53
2023-03-21T05:52:32.318Z,24.43
2023-03-21T05:55:02.354Z,22.30
2023-03-21T05:57:34.912Z,28.77
2023-03-21T06:00:12.046Z,19.97
2023-03-21T06:02:51.569Z,24.50
2023-03-21T06:05:46.475Z,22.73
2023-03-21T06:08:21.194Z,21.73
2023-03-21T06:10:49.705Z,17.97
2023-03-21T06:13:18.262Z,27.20
2023-03-21T06:15:48.632Z,20.43
2023-03-21T06:18:21.256Z,24.03
2023-03-21T06:21:01.870Z,27.77
2023-03-21T06:23:30.458Z,29.17
2023-03-21T06:25:59.597Z,32.07
2023-03-21T06:28:29.005Z,25.57
2023-03-21T06:30:58.952Z,22.27
2023-03-21T06:33:28.773Z,23.40
2023-03-21T06:35:59.408Z,29.17
2023-03-21T06:38:28.134Z,25.67
2023-03-21T06:40:56.625Z,30.67
2023-03-21T06:43:27.504Z,26.97
2023-03-21T06:45:56.311Z,21.20
2023-03-21T06:48:26.332Z,20.83
2023-03-21T06:50:57.304Z,13.30
2023-03-21T06:53:28.622Z,15.93
2023-03-21T06:56:16.448Z,22.53
2023-03-21T06:58:46.942Z,16.90
2023-03-21T07:01:42.799Z,24.63
2023-03-21T07:04:12.668Z,17.37
2023-03-21T07:06:41.182Z,27.37
2023-03-21T07:09:09.961Z,23.20
2023-03-21T07:11:39.613Z,17.37
2023-03-21T07:14:08.097Z,19.00
2023-03-21T07:16:36.760Z,21.37
2023-03-21T07:19:05.305Z,20.23
2023-03-21T07:21:35.243Z,19.93
2023-03-21T07:24:05.474Z,17.80
2023-03-21T07:26:34.281Z,23.03
2023-03-21T07:29:04.907Z,16.43
2023-03-21T07:31:33.441Z,19.17
2023-03-21T07:34:03.969Z,16.13
2023-03-21T07:36:34.144Z,19.03
2023-03-21T07:39:02.633Z,16.10
2023-03-21T07:41:31.461Z,14.33
2023-03-21T07:44:12.073Z,15.47
2023-03-21T07:46:40.900Z,17.27
2023-03-21T07:49:09.645Z,15.47
2023-03-21T07:51:39.523Z,25.20
2023-03-21T07:54:07.975Z,13.83
2023-03-21T07:56:36.456Z,14.67
2023-03-21T07:59:05.403Z,16.90
2023-03-21T08:01:33.867Z,13.63
2023-03-21T08:04:02.341Z,14.97
2023-03-21T08:06:32.367Z,14.03
2023-03-21T08:09:03.500Z,14.30
2023-03-21T08:11:32.268Z,12.70
2023-03-21T08:14:01.449Z,10.57
2023-03-21T08:16:30.054Z,20.03
2023-03-21T08:18:58.600Z,16.83
2023-03-21T08:21:27.130Z,13.43
2023-03-21T08:23:55.708Z,12.60
2023-03-21T08:26:26.453Z,17.23
2023-03-21T08:28:55.033Z,15.17
2023-03-21T08:31:23.567Z,15.93
2023-03-21T08:33:54.734Z,14.87
2023-03-21T08:36:24.400Z,12.83
2023-03-21T08:38:56.861Z,14.17
2023-03-21T08:41:26.782Z,11.43
2023-03-21T08:43:55.565Z,14.97
2023-03-21T08:46:24.047Z,18.50
2023-03-21T08:48:52.539Z,13.07
2023-03-21T08:51:21.339Z,19.20
2023-03-21T08:53:50.964Z,17.20
2023-03-21T08:56:19.892Z,11.50
2023-03-21T08:58:49.746Z,12.50
2023-03-21T09:01:18.404Z,15.73
2023-03-21T09:03:46.925Z,11.50
2023-03-21T09:06:15.847Z,17.50
2023-03-21T09:08:46.207Z,10.33
2023-03-21T09:11:14.673Z,10.30
2023-03-21T09:13:43.185Z,9.67
2023-03-21T09:16:13.233Z,12.93
2023-03-21T09:18:49.504Z,16.20
2023-03-21T09:21:20.292Z,13.77
2023-03-21T09:23:52.670Z,9.13
2023-03-21T09:26:21.476Z,9.17
2023-03-21T09:28:50.277Z,7.27
2023-03-21T09:31:23.258Z,11.10
2023-03-21T09:33:52.731Z,10.23
2023-03-21T09:36:24.866Z,14.77
2023-03-21T09:38:54.193Z,11.60
2023-03-21T09:41:35.215Z,10.90
2023-03-21T09:44:22.785Z,15.83
2023-03-21T09:46:58.750Z,9.93
2023-03-21T09:49:31.802Z,10.93
2023-03-21T09:52:05.531Z,13.23
2023-03-21T09:54:38.414Z,13.50
2023-03-21T09:57:20.654Z,6.87
2023-03-21T09:59:52.951Z,15.93
2023-03-21T10:02:35.996Z,10.37
2023-03-21T10:05:11.980Z,14.87
2023-03-21T10:07:47.657Z,13.20
2023-03-21T10:10:19.990Z,13.97
2023-03-21T10:12:49.866Z,9.50
2023-03-21T10:15:21.402Z,9.97
2023-03-21T10:17:59.271Z,13.10
2023-03-21T10:20:32.302Z,11.67
2023-03-21T10:23:04.243Z,9.93
2023-03-21T10:25:35.875Z,13.07
2023-03-21T10:28:07.413Z,11.07
2023-03-21T10:30:43.131Z,12.87
2023-03-21T10:33:18.074Z,8.93
2023-03-21T10:35:51.402Z,13.43
2023-03-21T10:38:22.378Z,9.37
2023-03-21T10:40:51.237Z,9.33
2023-03-21T10:43:35.286Z,9.90
2023-03-21T10:46:09.997Z,10.37
2023-03-21T10:48:46.085Z,5.57
2023-03-21T10:51:20.541Z,13.43
2023-03-21T10:53:53.444Z,8.07
2023-03-21T10:56:27.683Z,10.47
2023-03-21T10:58:59.695Z,9.27
2023-03-21T11:01:31.975Z,7.37
2023-03-21T11:04:09.409Z,8.90
2023-03-21T11:06:40.083Z,8.60
2023-03-21T11:09:13.153Z,9.37
2023-03-21T11:11:49.951Z,10.67
2023-03-21T11:14:35.712Z,6.03
2023-03-21T11:17:19.843Z,5.57
2023-03-21T11:19:54.474Z,6.70
2023-03-21T11:22:25.883Z,7.07
2023-03-21T11:24:58.396Z,13.90
2023-03-21T11:27:30.053Z,13.13
2023-03-21T11:30:01.715Z,11.87
2023-03-21T11:32:34.916Z,8.53
2023-03-21T11:35:07.762Z,12.47
2023-03-21T11:37:46.059Z,8.90
2023-03-21T11:40:23.184Z,8.47
2023-03-21T11:42:53.308Z,7.63
2023-03-21T11:45:23.755Z,5.70
2023-03-21T11:47:54.920Z,6.63
2023-03-21T11:50:32.539Z,12.17
2023-03-21T11:53:13.745Z,6.20
2023-03-21T11:55:51.601Z,11.13
2023-03-21T11:58:33.616Z,8.63
2023-03-21T12:01:14.132Z,8.90
2023-03-21T12:04:13.238Z,8.57
2023-03-21T12:06:48.663Z,10.90
2023-03-21T12:09:30.429Z,9.37
2023-03-21T12:12:10.493Z,9.17
2023-03-21T12:14:48.731Z,13.17
2023-03-21T12:17:29.250Z,11.33
2023-03-21T12:20:26.680Z,11.60
2023-03-21T12:23:16.572Z,16.07
2023-03-21T12:25:54.155Z,7.47
2023-03-21T12:28:33.735Z,8.10
2023-03-21T12:31:10.424Z,12.50
2023-03-21T12:33:52.076Z,8.10
2023-03-21T12:36:30.463Z,9.60
2023-03-21T12:39:09.665Z,10.07
2023-03-21T12:41:44.534Z,12.73
2023-03-21T12:44:15.624Z,8.83
2023-03-21T12:46:50.815Z,11.90
2023-03-21T12:49:24.526Z,8.33
2023-03-21T12:52:00.487Z,10.23
2023-03-21T12:54:38.034Z,6.03
2023-03-21T12:57:11.833Z,9.47
2023-03-21T12:59:45.433Z,8.27
2023-03-21T13:02:23.152Z,6.47
2023-03-21T13:05:01.489Z,6.00
2023-03-21T13:07:34.635Z,9.43
2023-03-21T13:10:13.006Z,17.77
2023-03-21T13:12:59.235Z,10.33
2023-03-21T13:15:50.514Z,6.43
2023-03-21T13:18:30.213Z,6.70
2023-03-21T13:21:01.205Z,7.50
2023-03-21T13:23:36.409Z,7.93
2023-03-21T13:26:11.179Z,7.70
2023-03-21T13:28:41.744Z,8.93
2023-03-21T13:31:19.596Z,6.40
2023-03-21T13:33:49.842Z,9.00
2023-03-21T13:36:24.436Z,8.80
2023-03-21T13:38:55.534Z,9.80
2023-03-21T13:41:34.321Z,5.67
2023-03-21T13:44:23.820Z,5.67
2023-03-21T13:46:57.154Z,8.20
2023-03-21T13:49:32.721Z,9.67
2023-03-21T13:52:02.673Z,11.00
2023-03-21T13:54:45.774Z,11.67
2023-03-21T13:57:38.247Z,11.07
2023-03-21T14:00:19.966Z,6.87
2023-03-21T14:02:56.558Z,9.17
2023-03-21T14:05:27.048Z,7.73
2023-03-21T14:08:09.938Z,16.37
2023-03-21T14:10:46.114Z,7.43
2023-03-21T14:13:19.789Z,10.13
2023-03-21T14:15:55.959Z,9.83
2023-03-21T14:18:35.083Z,12.67
2023-03-21T14:21:23.553Z,10.87
2023-03-21T14:24:00.739Z,11.17
2023-03-21T14:26:32.983Z,8.17
2023-03-21T14:29:05.467Z,6.93
2023-03-21T14:31:37.108Z,14.87
2023-03-21T14:34:05.962Z,13.07
2023-03-21T14:36:45.750Z,8.67
2023-03-21T14:39:19.129Z,8.57
2023-03-21T14:41:50.105Z,6.90
2023-03-21T14:44:28.872Z,14.67
2023-03-21T14:47:02.531Z,8.73
2023-03-21T14:49:32.526Z,7.10
2023-03-21T14:52:06.262Z,12.50
2023-03-21T14:54:36.587Z,11.23
2023-03-21T14:57:08.849Z,11.47
2023-03-21T14:59:40.669Z,8.60
2023-03-21T15:02:17.560Z,8.77
2023-03-21T15:04:52.586Z,12.20
2023-03-21T15:07:32.292Z,11.37
2023-03-21T15:10:03.841Z,10.57
2023-03-21T15:12:33.031Z,13.37
2023-03-21T15:15:03.955Z,11.57
2023-03-21T15:17:32.677Z,9.33
2023-03-21T15:20:01.181Z,10.43
2023-03-21T15:22:34.433Z,15.07
2023-03-21T15:25:07.046Z,10.40
2023-03-21T15:27:41.065Z,9.53
2023-03-21T15:30:21.281Z,12.30
2023-03-21T15:32:50.416Z,10.00
2023-03-21T15:35:23.459Z,9.30
2023-03-21T15:37:57.020Z,11.80
2023-03-21T15:40:28.361Z,13.73
2023-03-21T15:43:07.314Z,10.13
2023-03-21T15:45:48.358Z,11.07
2023-03-21T15:48:17.580Z,7.50
2023-03-21T15:50:55.027Z,7.40
2023-03-21T15:53:24.677Z,12.10
2023-03-21T15:55:56.976Z,11.07
2023-03-21T15:58:28.265Z,5.47
2023-03-21T16:01:03.849Z,13.00
2023-03-21T16:03:35.993Z,9.67
2023-03-21T16:06:16.889Z,11.83
2023-03-21T16:08:47.646Z,8.43
2023-03-21T16:11:20.382Z,7.87
2023-03-21T16:13:49.144Z,11.47
2023-03-21T16:16:21.911Z,8.00
2023-03-21T16:18:51.661Z,12.63
2023-03-21T16:21:23.185Z,19.27
2023-03-21T16:23:51.971Z,8.40
2023-03-21T16:26:22.598Z,12.73
2023-03-21T16:28:52.005Z,10.53
2023-03-21T16:31:24.182Z,13.23
2023-03-21T16:33:53.497Z,12.37
2023-03-21T16:36:24.541Z,13.00
2023-03-21T16:38:54.601Z,13.93
2023-03-21T16:41:24.426Z,17.77
2023-03-21T16:43:53.340Z,8.07
2023-03-21T16:46:25.164Z,15.13
2023-03-21T16:48:55.205Z,11.87
2023-03-21T16:51:27.008Z,8.70
2023-03-21T16:53:55.946Z,14.80
2023-03-21T16:56:26.106Z,8.73
2023-03-21T16:58:55.736Z,9.60
2023-03-21T17:01:29.847Z,12.47
2023-03-21T17:03:58.919Z,10.50
2023-03-21T17:06:29.912Z,12.37
2023-03-21T17:09:00.514Z,16.30
2023-03-21T17:11:31.448Z,12.63
2023-03-21T17:14:00.010Z,11.20
2023-03-21T17:16:30.089Z,15.97
2023-03-21T17:18:58.735Z,12.90
2023-03-21T17:21:29.145Z,15.00
2023-03-21T17:23:57.973Z,15.13
2023-03-21T17:26:29.087Z,14.47
2023-03-21T17:28:58.524Z,9.70
2023-03-21T17:31:36.271Z,11.07
2023-03-21T17:34:06.340Z,14.87
2023-03-21T17:36:37.244Z,12.63
2023-03-21T17:39:08.620Z,11.30
2023-03-21T17:41:37.271Z,14.57
2023-03-21T17:44:06.457Z,9.47
2023-03-21T17:46:38.002Z,14.90
2023-03-21T17:49:07.486Z,20.10
2023-03-21T17:51:35.972Z,10.70
2023-03-21T17:54:05.988Z,11.20
2023-03-21T17:56:37.398Z,9.47
2023-03-21T17:59:08.076Z,9.30
2023-03-21T18:01:38.050Z,8.77
2023-03-21T18:04:07.113Z,7.30
2023-03-21T18:06:37.337Z,12.67
2023-03-21T18:09:11.088Z,6.00
2023-03-21T18:11:41.064Z,8.97
2023-03-21T18:14:19.434Z,11.40
2023-03-21T18:16:54.360Z,7.23
2023-03-21T18:19:23.119Z,14.07
2023-03-21T18:21:51.921Z,8.40
2023-03-21T18:24:20.369Z,7.50
2023-03-21T18:26:48.797Z,8.00
2023-03-21T18:30:19.691Z,10.30
2023-03-21T18:32:09.674Z,14.60
2023-03-21T18:34:39.908Z,7.33
2023-03-21T18:37:11.366Z,10.50
2023-03-21T18:39:42.466Z,10.77
2023-03-21T18:42:17.282Z,10.07
2023-03-21T18:44:47.934Z,12.50
2023-03-21T18:47:18.305Z,14.23
2023-03-21T18:50:13.577Z,12.03
2023-03-21T18:52:35.461Z,10.00
2023-03-21T18:55:05.307Z,8.70
2023-03-21T18:57:37.338Z,9.60
2023-03-21T19:00:12.613Z,11.77
2023-03-21T19:02:47.066Z,12.97
2023-03-21T19:05:17.432Z,11.73
2023-03-21T19:07:46.494Z,9.53
2023-03-21T19:10:18.652Z,13.00
2023-03-21T19:12:48.144Z,10.73
2023-03-21T19:15:19.664Z,11.00
2023-03-21T19:20:43.586Z,13.40
2023-03-21T19:23:12.047Z,13.87
2023-03-21T19:25:40.805Z,12.27
2023-03-21T19:28:09.696Z,10.07
2023-03-21T19:30:38.331Z,12.33
2023-03-21T19:33:08.479Z,17.33
2023-03-21T19:35:40.867Z,8.77
2023-03-21T19:38:11.817Z,16.30
2023-03-21T19:40:41.422Z,10.23
2023-03-21T19:43:31.088Z,11.37
2023-03-21T19:46:00.577Z,11.00
2023-03-21T19:48:30.846Z,10.67
2023-03-21T19:51:36.394Z,12.40
2023-03-21T19:53:51.101Z,17.23
2023-03-21T19:56:23.018Z,14.37
2023-03-21T19:58:53.140Z,17.00
2023-03-21T20:01:22.192Z,15.20
2023-03-21T20:03:52.249Z,19.93
2023-03-21T20:06:22.320Z,12.20
2023-03-21T20:09:42.919Z,15.97
2023-03-21T20:11:40.054Z,14.93
2023-03-21T20:14:08.602Z,17.63
2023-03-21T20:16:37.465Z,16.40
2023-03-21T20:19:10.209Z,12.70
2023-03-21T20:21:52.169Z,17.30
2023-03-21T20:24:23.243Z,13.17
2023-03-21T20:26:53.566Z,11.43
2023-03-21T20:30:07.444Z,18.50
2023-03-21T20:32:10.539Z,15.33
2023-03-21T20:34:40.592Z,15.07
2023-03-21T20:37:09.746Z,12.33
2023-03-21T20:39:38.320Z,13.67
2023-03-21T20:42:07.117Z,18.30
2023-03-21T20:47:24.908Z,10.30
2023-03-21T20:49:56.732Z,12.43
2023-03-21T20:52:57.816Z,17.40
2023-03-21T20:55:14.397Z,12.53
2023-03-21T20:57:42.946Z,15.17
2023-03-21T21:00:15.766Z,11.80
2023-03-21T21:02:45.920Z,16.63
2023-03-21T21:05:28.334Z,11.57
2023-03-21T21:07:58.845Z,12.33
2023-03-21T21:10:27.746Z,10.50
2023-03-21T21:12:57.153Z,16.37
2023-03-21T21:15:25.629Z,12.97
2023-03-21T21:18:06.537Z,12.50
2023-03-21T21:20:38.292Z,10.97
2023-03-21T21:23:09.625Z,15.37
2023-03-21T21:25:38.350Z,14.37
2023-03-21T21:28:09.401Z,11.33
2023-03-21T21:30:41.263Z,10.87
2023-03-21T21:33:10.134Z,12.73
2023-03-21T21:35:46.830Z,13.83
2023-03-21T21:38:17.460Z,13.40
2023-03-21T21:40:46.604Z,14.33
2023-03-21T21:43:17.158Z,20.50
2023-03-21T21:45:46.622Z,12.73
2023-03-21T21:48:15.990Z,18.53
2023-03-21T21:50:47.382Z,26.83
2023-03-21T21:53:19.050Z,16.07
2023-03-21T21:55:48.736Z,11.07
2023-03-21T21:58:18.636Z,10.63
2023-03-21T22:00:48.061Z,13.97
2023-03-21T22:03:21.958Z,13.97
2023-03-21T22:05:52.878Z,16.17
2023-03-21T22:08:23.062Z,11.60
2023-03-21T22:10:51.738Z,13.03
2023-03-21T22:13:20.334Z,12.80
2023-03-21T22:15:48.763Z,12.23
2023-03-21T22:18:17.243Z,9.83
2023-03-21T22:20:46.051Z,7.30
2023-03-21T22:23:16.126Z,6.53
2023-03-21T22:25:50.824Z,7.87
2023-03-21T22:28:22.144Z,4.53
2023-03-21T22:30:50.716Z,15.90
2023-03-21T22:33:19.656Z,6.40
2023-03-21T22:35:48.162Z,8.97
2023-03-21T22:38:23.941Z,6.37
2023-03-21T22:40:56.281Z,9.57
2023-03-21T22:43:25.391Z,5.37
2023-03-21T22:45:54.420Z,6.87
2023-03-21T22:48:23.878Z,4.13
2023-03-21T22:50:52.462Z,9.70
2023-03-21T22:53:22.246Z,5.53
2023-03-21T22:55:50.884Z,12.23
2023-03-21T22:58:19.364Z,12.47
2023-03-21T23:00:48.239Z,7.80
2023-03-21T23:03:17.437Z,9.93
2023-03-21T23:05:46.719Z,6.77
2023-03-21T23:08:15.263Z,13.60
2023-03-21T23:10:46.028Z,8.67
2023-03-21T23:13:14.547Z,12.03
2023-03-21T23:15:43.138Z,8.83
2023-03-21T23:18:11.811Z,8.53
2023-03-21T23:20:40.572Z,12.93
2023-03-21T23:23:09.126Z,7.50
2023-03-21T23:25:39.547Z,6.07
2023-03-21T23:28:10.646Z,9.83
2023-03-21T23:30:39.450Z,6.67
2023-03-21T23:33:08.070Z,4.23
2023-03-21T23:35:38.346Z,5.33
2023-03-21T23:38:07.022Z,7.80
2023-03-21T23:40:35.593Z,5.73
2023-03-21T23:43:04.072Z,4.07
2023-03-21T23:45:33.857Z,6.33
2023-03-21T23:48:02.468Z,9.10
2023-03-21T23:50:31.040Z,10.43
2023-03-21T23:52:59.521Z,8.97
2023-03-21T23:55:28.181Z,7.53
2023-03-21T23:57:59.153Z,9.53
